East Corinth, VT (05040)

09:21 PM EDT del 05 Maggio 2015 (GMT -0400)
Goshen Heights | | Change Station
CLOSE
Current Station
Stazione meteo personale
Location: Bradford, VT
Altitudine: 1060 ft
Stazioni meteo nelle vicinanze

Alt. 1060 ft 44.01 °N, 72.14 °W | Updated 6 seconds ago

Parzialmente nuvoloso
Parzialmente nuvoloso
56.2 °F
Sembra 56.2 °F
N
0.0
Vento Variabile Vento da ONO
Gusts 1.0 mph

Oggi
Massima -- | Minima -- °F
--% Possibilità di precip.
Ieri
Massima -- | Minima -- °F
Precip. -- in
5:35 AM 7:56 PM
Gobba a levante, 96% visible
Pressione 30.28 in
Visibilità 10.0 miglia
Nuvole Sereno
Punto di rugiada 32 °F
Umidità 40%
Piovosità 0.00 in
Spessore del manto nevoso Non disponibile.
Raggi UV 0 fuori da 12
Polline 8.90 fuori da 12
Qualità dell'aria Non disponibile.
Flu Activity Regional
METAR KMPV 060051Z AUTO 32004KT 10SM CLR 13/M01 A3027 RMK AO2 SLP253 T01331011

More Conditions Fewer Conditions

Pressione 30.28 in
Visibilità 10.0 miglia
Nuvole Sereno
Punto di rugiada 32 °F
Umidità 40%
Piovosità 0.00 in
Spessore del manto nevoso Non disponibile.
Raggi UV 0 fuori da 12
Polline 8.90 fuori da 12
Qualità dell'aria Non disponibile.
Flu Activity Regional
METAR KMPV 060051Z AUTO 32004KT 10SM CLR 13/M01 A3027 RMK AO2 SLP253 T01331011

More Conditions Fewer Conditions

10-Day Weather Forecast

Almanac

Astronomia

May. 05, 2015 Alba Tramonto
Ora attuale
Crepuscolo civile
Crepuscolo nautico
Crepuscolo astronomico
Luna
Estensione della luce visibile
Lunghezza del giorno
Tomorrow will be .
, % of the Moon is Illuminated

Gli estremi di oggi

State Highs State Lows

Community

WunderPhotos

Upload Photos

1,819,032 foto caricate!

WunderBlogs® & News

Nearby

Qualità dell'aria

  Qualità dell'aria Indice AQ Inquinante
Not available.

Profondità neve

Stazione Profondità Altitudine

Attività sismica

Città  Distanza Mag. Data & Ora
Minimo Magnitudo Mostrato è 2.5.

Temperature delle acque costiere

Località Temperatura

Stations

Stazioni meteo nelle vicinanze

Ubicazione della stazione Temp. Raffreddamento del vento Punto di rugiada Umidità Vento Precip. Alt. Aggiornato Tipo